sensor_id;sensor_type;location;lat;lon;timestamp;temperature;humidity
33955;DHT22;20233;50.804;7.126;2023-04-09T00:01:49;8.90;99.90
33955;DHT22;20233;50.804;7.126;2023-04-09T00:04:14;8.90;99.90
33955;DHT22;20233;50.804;7.126;2023-04-09T00:06:40;8.90;99.90
33955;DHT22;20233;50.804;7.126;2023-04-09T00:09:05;8.90;99.90
33955;DHT22;20233;50.804;7.126;2023-04-09T00:11:32;8.90;99.90
33955;DHT22;20233;50.804;7.126;2023-04-09T00:13:58;8.90;99.90
33955;DHT22;20233;50.804;7.126;2023-04-09T00:16:23;8.90;99.90
33955;DHT22;20233;50.804;7.126;2023-04-09T00:18:49;8.80;99.90
33955;DHT22;20233;50.804;7.126;2023-04-09T00:21:14;8.80;99.90
33955;DHT22;20233;50.804;7.126;2023-04-09T00:23:41;8.80;99.90
33955;DHT22;20233;50.804;7.126;2023-04-09T00:26:06;8.80;99.90
33955;DHT22;20233;50.804;7.126;2023-04-09T00:28:32;8.80;99.90
33955;DHT22;20233;50.804;7.126;2023-04-09T00:31:01;8.80;99.90
33955;DHT22;20233;50.804;7.126;2023-04-09T00:33:26;8.80;99.90
33955;DHT22;20233;50.804;7.126;2023-04-09T00:35:52;8.70;99.90
33955;DHT22;20233;50.804;7.126;2023-04-09T00:38:17;8.70;99.90
33955;DHT22;20233;50.804;7.126;2023-04-09T00:40:43;8.70;99.90
33955;DHT22;20233;50.804;7.126;2023-04-09T00:43:08;8.70;99.90
33955;DHT22;20233;50.804;7.126;2023-04-09T00:45:35;8.70;99.90
33955;DHT22;20233;50.804;7.126;2023-04-09T00:48:01;8.70;99.90
33955;DHT22;20233;50.804;7.126;2023-04-09T00:50:27;8.60;99.90
33955;DHT22;20233;50.804;7.126;2023-04-09T00:52:52;8.60;99.90
33955;DHT22;20233;50.804;7.126;2023-04-09T00:55:19;8.60;99.90
33955;DHT22;20233;50.804;7.126;2023-04-09T00:57:45;8.70;99.90
33955;DHT22;20233;50.804;7.126;2023-04-09T01:00:11;8.60;99.90
33955;DHT22;20233;50.804;7.126;2023-04-09T01:02:38;8.70;99.90
33955;DHT22;20233;50.804;7.126;2023-04-09T01:05:04;8.70;99.90
33955;DHT22;20233;50.804;7.126;2023-04-09T01:10:33;8.70;99.90
33955;DHT22;20233;50.804;7.126;2023-04-09T01:15:32;8.70;99.90
33955;DHT22;20233;50.804;7.126;2023-04-09T01:18:10;8.70;99.90
33955;DHT22;20233;50.804;7.126;2023-04-09T01:23:45;8.60;99.90
33955;DHT22;20233;50.804;7.126;2023-04-09T01:28:56;8.60;99.90
33955;DHT22;20233;50.804;7.126;2023-04-09T01:31:36;8.60;99.90
33955;DHT22;20233;50.804;7.126;2023-04-09T01:34:05;8.60;99.90
33955;DHT22;20233;50.804;7.126;2023-04-09T01:36:33;8.60;99.90
33955;DHT22;20233;50.804;7.126;2023-04-09T01:39:01;8.60;99.90
33955;DHT22;20233;50.804;7.126;2023-04-09T01:41:27;8.60;99.90
33955;DHT22;20233;50.804;7.126;2023-04-09T01:43:55;8.60;99.90
33955;DHT22;20233;50.804;7.126;2023-04-09T01:46:22;8.50;99.90
33955;DHT22;20233;50.804;7.126;2023-04-09T01:48:49;8.50;99.90
33955;DHT22;20233;50.804;7.126;2023-04-09T01:51:15;8.50;99.90
33955;DHT22;20233;50.804;7.126;2023-04-09T01:53:42;8.40;99.90
33955;DHT22;20233;50.804;7.126;2023-04-09T01:56:08;8.40;99.90
33955;DHT22;20233;50.804;7.126;2023-04-09T01:58:34;8.30;99.90
33955;DHT22;20233;50.804;7.126;2023-04-09T02:01:08;8.40;99.90
33955;DHT22;20233;50.804;7.126;2023-04-09T02:03:50;8.30;99.90
33955;DHT22;20233;50.804;7.126;2023-04-09T02:06:37;8.30;99.90
33955;DHT22;20233;50.804;7.126;2023-04-09T02:09:08;8.20;99.90
33955;DHT22;20233;50.804;7.126;2023-04-09T02:11:37;8.20;99.90
33955;DHT22;20233;50.804;7.126;2023-04-09T02:14:03;8.20;99.90
33955;DHT22;20233;50.804;7.126;2023-04-09T02:16:31;8.10;99.90
33955;DHT22;20233;50.804;7.126;2023-04-09T02:21:26;8.10;99.90
33955;DHT22;20233;50.804;7.126;2023-04-09T02:23:53;8.00;99.90
33955;DHT22;20233;50.804;7.126;2023-04-09T02:26:18;8.00;99.90
33955;DHT22;20233;50.804;7.126;2023-04-09T02:28:44;8.00;99.90
33955;DHT22;20233;50.804;7.126;2023-04-09T02:31:09;8.00;99.90
33955;DHT22;20233;50.804;7.126;2023-04-09T02:33:35;8.00;99.90
33955;DHT22;20233;50.804;7.126;2023-04-09T02:36:01;8.00;99.90
33955;DHT22;20233;50.804;7.126;2023-04-09T02:38:26;8.00;99.90
33955;DHT22;20233;50.804;7.126;2023-04-09T02:40:52;7.90;99.90
33955;DHT22;20233;50.804;7.126;2023-04-09T02:43:17;7.90;99.90
33955;DHT22;20233;50.804;7.126;2023-04-09T02:45:43;7.90;99.90
33955;DHT22;20233;50.804;7.126;2023-04-09T02:48:08;7.90;99.90
33955;DHT22;20233;50.804;7.126;2023-04-09T02:50:34;7.80;99.90
33955;DHT22;20233;50.804;7.126;2023-04-09T02:52:59;7.80;99.90
33955;DHT22;20233;50.804;7.126;2023-04-09T02:55:25;7.80;99.90
33955;DHT22;20233;50.804;7.126;2023-04-09T02:57:51;7.70;99.90
33955;DHT22;20233;50.804;7.126;2023-04-09T03:00:16;7.70;99.90
33955;DHT22;20233;50.804;7.126;2023-04-09T03:02:43;7.70;99.90
33955;DHT22;20233;50.804;7.126;2023-04-09T03:05:09;7.70;99.90
33955;DHT22;20233;50.804;7.126;2023-04-09T03:07:34;7.70;99.90
33955;DHT22;20233;50.804;7.126;2023-04-09T03:10:00;7.60;99.90
33955;DHT22;20233;50.804;7.126;2023-04-09T03:12:25;7.60;99.90
33955;DHT22;20233;50.804;7.126;2023-04-09T03:14:51;7.60;99.90
33955;DHT22;20233;50.804;7.126;2023-04-09T03:17:16;7.60;99.90
33955;DHT22;20233;50.804;7.126;2023-04-09T03:19:42;7.60;99.90
33955;DHT22;20233;50.804;7.126;2023-04-09T03:22:07;7.60;99.90
33955;DHT22;20233;50.804;7.126;2023-04-09T03:24:33;7.60;99.90
33955;DHT22;20233;50.804;7.126;2023-04-09T03:26:59;7.50;99.90
33955;DHT22;20233;50.804;7.126;2023-04-09T03:29:24;7.50;99.90
33955;DHT22;20233;50.804;7.126;2023-04-09T03:31:50;7.50;99.90
33955;DHT22;20233;50.804;7.126;2023-04-09T03:34:15;7.40;99.90
33955;DHT22;20233;50.804;7.126;2023-04-09T03:36:41;7.40;99.90
33955;DHT22;20233;50.804;7.126;2023-04-09T03:39:06;7.30;99.90
33955;DHT22;20233;50.804;7.126;2023-04-09T03:41:32;7.30;99.90
33955;DHT22;20233;50.804;7.126;2023-04-09T03:43:58;7.30;99.90
33955;DHT22;20233;50.804;7.126;2023-04-09T03:46:24;7.20;99.90
33955;DHT22;20233;50.804;7.126;2023-04-09T03:48:49;7.20;99.90
33955;DHT22;20233;50.804;7.126;2023-04-09T03:51:16;7.20;99.90
33955;DHT22;20233;50.804;7.126;2023-04-09T03:53:42;7.20;99.90
33955;DHT22;20233;50.804;7.126;2023-04-09T03:56:09;7.10;99.90
33955;DHT22;20233;50.804;7.126;2023-04-09T03:58:35;7.10;99.90
33955;DHT22;20233;50.804;7.126;2023-04-09T04:01:01;7.10;99.90
33955;DHT22;20233;50.804;7.126;2023-04-09T04:03:27;7.10;99.90
33955;DHT22;20233;50.804;7.126;2023-04-09T04:05:53;7.10;99.90
33955;DHT22;20233;50.804;7.126;2023-04-09T04:08:19;7.20;99.90
33955;DHT22;20233;50.804;7.126;2023-04-09T04:10:44;7.20;99.90
33955;DHT22;20233;50.804;7.126;2023-04-09T04:13:10;7.20;99.90
33955;DHT22;20233;50.804;7.126;2023-04-09T04:15:39;7.20;99.90
33955;DHT22;20233;50.804;7.126;2023-04-09T04:18:06;7.20;99.90
33955;DHT22;20233;50.804;7.126;2023-04-09T04:20:32;7.30;99.90
33955;DHT22;20233;50.804;7.126;2023-04-09T04:22:58;7.30;99.90
33955;DHT22;20233;50.804;7.126;2023-04-09T04:25:24;7.30;99.90
33955;DHT22;20233;50.804;7.126;2023-04-09T04:27:50;7.30;99.90
33955;DHT22;20233;50.804;7.126;2023-04-09T04:30:15;7.30;99.90
33955;DHT22;20233;50.804;7.126;2023-04-09T04:32:41;7.30;99.90
33955;DHT22;20233;50.804;7.126;2023-04-09T04:35:07;7.30;99.90
33955;DHT22;20233;50.804;7.126;2023-04-09T04:37:32;7.30;99.90
33955;DHT22;20233;50.804;7.126;2023-04-09T04:40:00;7.30;99.90
33955;DHT22;20233;50.804;7.126;2023-04-09T04:42:26;7.20;99.90
33955;DHT22;20233;50.804;7.126;2023-04-09T04:44:51;7.20;99.90
33955;DHT22;20233;50.804;7.126;2023-04-09T04:47:17;7.20;99.90
33955;DHT22;20233;50.804;7.126;2023-04-09T04:49:43;7.10;99.90
33955;DHT22;20233;50.804;7.126;2023-04-09T04:52:09;7.20;99.90
33955;DHT22;20233;50.804;7.126;2023-04-09T04:54:35;7.10;99.90
33955;DHT22;20233;50.804;7.126;2023-04-09T04:57:01;7.00;99.90
33955;DHT22;20233;50.804;7.126;2023-04-09T04:59:26;7.00;99.90
33955;DHT22;20233;50.804;7.126;2023-04-09T05:01:52;7.00;99.90
33955;DHT22;20233;50.804;7.126;2023-04-09T05:04:17;7.00;99.90
33955;DHT22;20233;50.804;7.126;2023-04-09T05:06:43;7.00;99.90
33955;DHT22;20233;50.804;7.126;2023-04-09T05:09:09;7.00;99.90
33955;DHT22;20233;50.804;7.126;2023-04-09T05:11:34;7.00;99.90
33955;DHT22;20233;50.804;7.126;2023-04-09T05:14:00;6.90;99.90
33955;DHT22;20233;50.804;7.126;2023-04-09T05:16:25;6.90;99.90
33955;DHT22;20233;50.804;7.126;2023-04-09T05:18:53;7.00;99.90
33955;DHT22;20233;50.804;7.126;2023-04-09T05:21:19;7.00;99.90
33955;DHT22;20233;50.804;7.126;2023-04-09T05:23:44;6.90;99.90
33955;DHT22;20233;50.804;7.126;2023-04-09T05:26:10;7.00;99.90
33955;DHT22;20233;50.804;7.126;2023-04-09T05:28:36;7.10;99.90
33955;DHT22;20233;50.804;7.126;2023-04-09T05:31:02;7.00;99.90
33955;DHT22;20233;50.804;7.126;2023-04-09T05:33:27;7.00;99.90
33955;DHT22;20233;50.804;7.126;2023-04-09T05:35:54;7.10;99.90
33955;DHT22;20233;50.804;7.126;2023-04-09T05:38:20;7.10;99.90
33955;DHT22;20233;50.804;7.126;2023-04-09T05:40:45;7.10;99.90
33955;DHT22;20233;50.804;7.126;2023-04-09T05:43:13;7.20;99.90
33955;DHT22;20233;50.804;7.126;2023-04-09T05:45:38;7.20;99.90
33955;DHT22;20233;50.804;7.126;2023-04-09T05:48:04;7.20;99.90
33955;DHT22;20233;50.804;7.126;2023-04-09T05:50:30;7.20;99.90
33955;DHT22;20233;50.804;7.126;2023-04-09T05:52:56;7.20;99.90
33955;DHT22;20233;50.804;7.126;2023-04-09T05:55:21;7.20;99.90
33955;DHT22;20233;50.804;7.126;2023-04-09T05:57:47;7.30;99.90
33955;DHT22;20233;50.804;7.126;2023-04-09T06:00:13;7.30;99.90
33955;DHT22;20233;50.804;7.126;2023-04-09T06:02:39;7.30;99.90
33955;DHT22;20233;50.804;7.126;2023-04-09T06:05:05;7.30;99.90
33955;DHT22;20233;50.804;7.126;2023-04-09T06:07:31;7.40;99.90
33955;DHT22;20233;50.804;7.126;2023-04-09T06:09:57;7.40;99.90
33955;DHT22;20233;50.804;7.126;2023-04-09T06:12:22;7.50;99.90
33955;DHT22;20233;50.804;7.126;2023-04-09T06:14:50;7.50;99.90
33955;DHT22;20233;50.804;7.126;2023-04-09T06:17:16;7.50;99.90
33955;DHT22;20233;50.804;7.126;2023-04-09T06:19:41;7.60;99.90
33955;DHT22;20233;50.804;7.126;2023-04-09T06:22:09;7.60;99.90
33955;DHT22;20233;50.804;7.126;2023-04-09T06:24:35;7.70;99.90
33955;DHT22;20233;50.804;7.126;2023-04-09T06:27:01;7.70;99.90
33955;DHT22;20233;50.804;7.126;2023-04-09T06:29:26;7.70;99.90
33955;DHT22;20233;50.804;7.126;2023-04-09T06:31:52;7.80;99.90
33955;DHT22;20233;50.804;7.126;2023-04-09T06:34:18;7.80;99.90
33955;DHT22;20233;50.804;7.126;2023-04-09T06:36:44;7.90;99.90
33955;DHT22;20233;50.804;7.126;2023-04-09T06:39:10;7.80;99.90
33955;DHT22;20233;50.804;7.126;2023-04-09T06:41:35;7.90;99.90
33955;DHT22;20233;50.804;7.126;2023-04-09T06:44:01;7.90;99.90
33955;DHT22;20233;50.804;7.126;2023-04-09T06:46:27;8.00;99.90
33955;DHT22;20233;50.804;7.126;2023-04-09T06:48:52;8.00;99.90
33955;DHT22;20233;50.804;7.126;2023-04-09T06:51:18;8.00;99.90
33955;DHT22;20233;50.804;7.126;2023-04-09T06:53:44;8.10;99.90
33955;DHT22;20233;50.804;7.126;2023-04-09T06:56:09;8.20;99.90
33955;DHT22;20233;50.804;7.126;2023-04-09T06:58:35;8.30;99.90
33955;DHT22;20233;50.804;7.126;2023-04-09T07:01:01;8.40;99.90
33955;DHT22;20233;50.804;7.126;2023-04-09T07:03:28;8.60;99.90
33955;DHT22;20233;50.804;7.126;2023-04-09T07:05:54;8.60;99.90
33955;DHT22;20233;50.804;7.126;2023-04-09T07:08:19;8.70;99.90
33955;DHT22;20233;50.804;7.126;2023-04-09T07:10:47;8.80;99.90
33955;DHT22;20233;50.804;7.126;2023-04-09T07:13:12;8.80;99.90
33955;DHT22;20233;50.804;7.126;2023-04-09T07:15:38;8.90;99.90
33955;DHT22;20233;50.804;7.126;2023-04-09T07:18:03;9.00;99.90
33955;DHT22;20233;50.804;7.126;2023-04-09T07:20:29;9.10;99.90
33955;DHT22;20233;50.804;7.126;2023-04-09T07:22:55;9.10;99.90
33955;DHT22;20233;50.804;7.126;2023-04-09T07:25:20;9.30;99.90
33955;DHT22;20233;50.804;7.126;2023-04-09T07:27:46;9.40;99.90
33955;DHT22;20233;50.804;7.126;2023-04-09T07:30:12;9.60;99.90
33955;DHT22;20233;50.804;7.126;2023-04-09T07:32:37;9.70;99.90
33955;DHT22;20233;50.804;7.126;2023-04-09T07:35:06;9.80;99.90
33955;DHT22;20233;50.804;7.126;2023-04-09T07:37:34;9.80;99.90
33955;DHT22;20233;50.804;7.126;2023-04-09T07:40:00;9.90;99.90
33955;DHT22;20233;50.804;7.126;2023-04-09T07:42:26;9.90;99.90
33955;DHT22;20233;50.804;7.126;2023-04-09T07:44:52;9.90;99.90
33955;DHT22;20233;50.804;7.126;2023-04-09T07:47:18;9.90;99.90
33955;DHT22;20233;50.804;7.126;2023-04-09T07:49:43;9.90;99.90
33955;DHT22;20233;50.804;7.126;2023-04-09T07:52:09;10.00;99.90
33955;DHT22;20233;50.804;7.126;2023-04-09T07:54:35;10.00;99.90
33955;DHT22;20233;50.804;7.126;2023-04-09T07:57:01;10.10;99.90
33955;DHT22;20233;50.804;7.126;2023-04-09T07:59:27;10.10;99.90
33955;DHT22;20233;50.804;7.126;2023-04-09T08:01:53;10.20;99.90
33955;DHT22;20233;50.804;7.126;2023-04-09T08:04:18;10.20;99.90
33955;DHT22;20233;50.804;7.126;2023-04-09T08:06:44;10.30;99.90
33955;DHT22;20233;50.804;7.126;2023-04-09T08:09:16;10.30;99.90
33955;DHT22;20233;50.804;7.126;2023-04-09T08:11:43;10.40;99.90
33955;DHT22;20233;50.804;7.126;2023-04-09T08:14:10;10.40;99.90
33955;DHT22;20233;50.804;7.126;2023-04-09T08:16:38;10.40;99.90
33955;DHT22;20233;50.804;7.126;2023-04-09T08:19:05;10.60;99.90
33955;DHT22;20233;50.804;7.126;2023-04-09T08:21:31;10.60;99.90
33955;DHT22;20233;50.804;7.126;2023-04-09T08:23:56;10.70;99.90
33955;DHT22;20233;50.804;7.126;2023-04-09T08:26:25;10.90;99.90
33955;DHT22;20233;50.804;7.126;2023-04-09T08:28:51;10.90;99.90
33955;DHT22;20233;50.804;7.126;2023-04-09T08:31:16;11.00;99.90
33955;DHT22;20233;50.804;7.126;2023-04-09T08:33:42;11.00;99.90
33955;DHT22;20233;50.804;7.126;2023-04-09T08:36:08;11.10;99.90
33955;DHT22;20233;50.804;7.126;2023-04-09T08:38:35;11.10;99.90
33955;DHT22;20233;50.804;7.126;2023-04-09T08:41:01;11.40;99.90
33955;DHT22;20233;50.804;7.126;2023-04-09T08:43:27;11.40;99.90
33955;DHT22;20233;50.804;7.126;2023-04-09T08:45:54;11.30;99.90
33955;DHT22;20233;50.804;7.126;2023-04-09T08:48:23;11.50;99.90
33955;DHT22;20233;50.804;7.126;2023-04-09T08:50:49;11.60;99.90
33955;DHT22;20233;50.804;7.126;2023-04-09T08:53:16;11.70;99.90
33955;DHT22;20233;50.804;7.126;2023-04-09T08:55:46;11.70;99.90
33955;DHT22;20233;50.804;7.126;2023-04-09T08:58:12;11.80;99.90
33955;DHT22;20233;50.804;7.126;2023-04-09T09:00:38;11.80;99.90
33955;DHT22;20233;50.804;7.126;2023-04-09T09:03:05;11.90;99.90
33955;DHT22;20233;50.804;7.126;2023-04-09T09:05:38;12.10;99.90
33955;DHT22;20233;50.804;7.126;2023-04-09T09:08:09;12.10;99.90
33955;DHT22;20233;50.804;7.126;2023-04-09T09:10:42;12.20;99.90
33955;DHT22;20233;50.804;7.126;2023-04-09T09:13:25;12.40;99.90
33955;DHT22;20233;50.804;7.126;2023-04-09T09:16:11;12.60;99.90
33955;DHT22;20233;50.804;7.126;2023-04-09T09:18:41;12.60;99.90
33955;DHT22;20233;50.804;7.126;2023-04-09T09:21:15;12.80;99.90
33955;DHT22;20233;50.804;7.126;2023-04-09T09:23:42;12.90;99.90
33955;DHT22;20233;50.804;7.126;2023-04-09T09:26:19;12.90;99.90
33955;DHT22;20233;50.804;7.126;2023-04-09T09:28:46;12.90;99.90
33955;DHT22;20233;50.804;7.126;2023-04-09T09:31:13;13.00;99.90
33955;DHT22;20233;50.804;7.126;2023-04-09T09:33:39;13.10;99.90
33955;DHT22;20233;50.804;7.126;2023-04-09T09:36:05;13.10;99.90
33955;DHT22;20233;50.804;7.126;2023-04-09T09:38:32;13.00;99.90
33955;DHT22;20233;50.804;7.126;2023-04-09T09:40:57;13.10;99.90
33955;DHT22;20233;50.804;7.126;2023-04-09T09:43:23;13.10;99.90
33955;DHT22;20233;50.804;7.126;2023-04-09T09:45:51;13.10;99.90
33955;DHT22;20233;50.804;7.126;2023-04-09T09:48:17;13.20;99.90
33955;DHT22;20233;50.804;7.126;2023-04-09T09:50:44;13.20;99.90
33955;DHT22;20233;50.804;7.126;2023-04-09T09:53:13;13.30;99.90
33955;DHT22;20233;50.804;7.126;2023-04-09T09:55:42;13.40;99.90
33955;DHT22;20233;50.804;7.126;2023-04-09T09:58:21;13.40;99.90
33955;DHT22;20233;50.804;7.126;2023-04-09T10:00:48;13.50;99.90
33955;DHT22;20233;50.804;7.126;2023-04-09T10:03:21;13.50;99.90
33955;DHT22;20233;50.804;7.126;2023-04-09T10:05:48;13.70;99.90
33955;DHT22;20233;50.804;7.126;2023-04-09T10:08:14;13.80;99.90
33955;DHT22;20233;50.804;7.126;2023-04-09T10:10:42;14.00;99.90
33955;DHT22;20233;50.804;7.126;2023-04-09T10:13:15;14.10;99.90
33955;DHT22;20233;50.804;7.126;2023-04-09T10:15:43;14.20;99.90
33955;DHT22;20233;50.804;7.126;2023-04-09T10:18:10;14.20;99.90
33955;DHT22;20233;50.804;7.126;2023-04-09T10:20:42;14.10;99.90
33955;DHT22;20233;50.804;7.126;2023-04-09T10:23:18;14.10;99.90
33955;DHT22;20233;50.804;7.126;2023-04-09T10:25:46;14.20;99.90
33955;DHT22;20233;50.804;7.126;2023-04-09T10:28:18;14.30;99.90
33955;DHT22;20233;50.804;7.126;2023-04-09T10:30:45;14.50;99.90
33955;DHT22;20233;50.804;7.126;2023-04-09T10:33:18;14.40;99.90
33955;DHT22;20233;50.804;7.126;2023-04-09T10:35:47;14.40;99.90
33955;DHT22;20233;50.804;7.126;2023-04-09T10:38:15;14.50;99.90
33955;DHT22;20233;50.804;7.126;2023-04-09T10:40:47;14.50;99.90
33955;DHT22;20233;50.804;7.126;2023-04-09T10:43:19;14.70;99.90
33955;DHT22;20233;50.804;7.126;2023-04-09T10:45:45;14.70;99.90
33955;DHT22;20233;50.804;7.126;2023-04-09T10:48:19;14.60;99.90
33955;DHT22;20233;50.804;7.126;2023-04-09T10:50:45;14.70;99.90
33955;DHT22;20233;50.804;7.126;2023-04-09T10:53:24;14.60;99.90
33955;DHT22;20233;50.804;7.126;2023-04-09T10:55:52;14.80;99.90
33955;DHT22;20233;50.804;7.126;2023-04-09T10:58:18;14.80;99.90
33955;DHT22;20233;50.804;7.126;2023-04-09T11:00:48;14.90;99.90
33955;DHT22;20233;50.804;7.126;2023-04-09T11:03:22;15.00;99.90
33955;DHT22;20233;50.804;7.126;2023-04-09T11:05:56;15.00;99.90
33955;DHT22;20233;50.804;7.126;2023-04-09T11:08:22;15.00;99.90
33955;DHT22;20233;50.804;7.126;2023-04-09T11:10:48;15.10;99.90
33955;DHT22;20233;50.804;7.126;2023-04-09T11:13:15;15.00;99.90
33955;DHT22;20233;50.804;7.126;2023-04-09T11:15:44;15.00;99.90
33955;DHT22;20233;50.804;7.126;2023-04-09T11:18:14;15.00;99.90
33955;DHT22;20233;50.804;7.126;2023-04-09T11:20:40;15.00;99.90
33955;DHT22;20233;50.804;7.126;2023-04-09T11:23:06;15.10;99.90
33955;DHT22;20233;50.804;7.126;2023-04-09T11:25:32;15.10;99.90
33955;DHT22;20233;50.804;7.126;2023-04-09T11:28:02;15.10;99.90
33955;DHT22;20233;50.804;7.126;2023-04-09T11:30:28;15.10;99.90
33955;DHT22;20233;50.804;7.126;2023-04-09T11:32:53;15.10;99.90
33955;DHT22;20233;50.804;7.126;2023-04-09T11:35:21;15.10;99.90
33955;DHT22;20233;50.804;7.126;2023-04-09T11:37:48;15.10;99.90
33955;DHT22;20233;50.804;7.126;2023-04-09T11:40:21;15.10;99.90
33955;DHT22;20233;50.804;7.126;2023-04-09T11:42:53;15.20;99.90
33955;DHT22;20233;50.804;7.126;2023-04-09T11:45:22;15.00;99.90
33955;DHT22;20233;50.804;7.126;2023-04-09T11:47:48;14.90;99.90
33955;DHT22;20233;50.804;7.126;2023-04-09T11:50:14;14.90;99.90
33955;DHT22;20233;50.804;7.126;2023-04-09T11:52:41;14.80;99.90
33955;DHT22;20233;50.804;7.126;2023-04-09T11:55:08;14.90;99.90
33955;DHT22;20233;50.804;7.126;2023-04-09T11:57:46;14.80;99.90
33955;DHT22;20233;50.804;7.126;2023-04-09T12:00:13;14.90;99.90
33955;DHT22;20233;50.804;7.126;2023-04-09T12:02:41;15.10;99.90
33955;DHT22;20233;50.804;7.126;2023-04-09T12:05:09;15.00;99.90
33955;DHT22;20233;50.804;7.126;2023-04-09T12:07:36;15.10;99.90
33955;DHT22;20233;50.804;7.126;2023-04-09T12:10:04;15.10;99.90
33955;DHT22;20233;50.804;7.126;2023-04-09T12:12:30;15.10;99.90
33955;DHT22;20233;50.804;7.126;2023-04-09T12:14:56;15.30;99.90
33955;DHT22;20233;50.804;7.126;2023-04-09T12:17:23;15.30;99.90
33955;DHT22;20233;50.804;7.126;2023-04-09T12:19:49;15.30;99.90
33955;DHT22;20233;50.804;7.126;2023-04-09T12:22:14;15.40;99.90
33955;DHT22;20233;50.804;7.126;2023-04-09T12:24:40;15.50;99.90
33955;DHT22;20233;50.804;7.126;2023-04-09T12:27:05;15.70;99.90
33955;DHT22;20233;50.804;7.126;2023-04-09T12:29:31;15.70;99.90
33955;DHT22;20233;50.804;7.126;2023-04-09T12:31:57;15.80;99.90
33955;DHT22;20233;50.804;7.126;2023-04-09T12:34:24;15.80;99.90
33955;DHT22;20233;50.804;7.126;2023-04-09T12:36:51;15.80;99.90
33955;DHT22;20233;50.804;7.126;2023-04-09T12:39:17;15.80;99.90
33955;DHT22;20233;50.804;7.126;2023-04-09T12:41:45;15.80;99.90
33955;DHT22;20233;50.804;7.126;2023-04-09T12:44:10;15.90;99.90
33955;DHT22;20233;50.804;7.126;2023-04-09T12:46:36;15.90;99.90
33955;DHT22;20233;50.804;7.126;2023-04-09T12:49:01;15.90;99.90
33955;DHT22;20233;50.804;7.126;2023-04-09T12:51:27;15.80;99.90
33955;DHT22;20233;50.804;7.126;2023-04-09T12:53:52;15.90;99.90
33955;DHT22;20233;50.804;7.126;2023-04-09T12:56:18;16.00;99.90
33955;DHT22;20233;50.804;7.126;2023-04-09T12:58:44;16.00;99.90
33955;DHT22;20233;50.804;7.126;2023-04-09T13:01:09;16.00;99.90
33955;DHT22;20233;50.804;7.126;2023-04-09T13:03:35;16.10;99.90
33955;DHT22;20233;50.804;7.126;2023-04-09T13:06:00;16.10;99.90
33955;DHT22;20233;50.804;7.126;2023-04-09T13:08:26;16.10;99.90
33955;DHT22;20233;50.804;7.126;2023-04-09T13:10:52;16.30;99.90
33955;DHT22;20233;50.804;7.126;2023-04-09T13:13:17;16.10;99.90
33955;DHT22;20233;50.804;7.126;2023-04-09T13:15:43;16.20;99.90
33955;DHT22;20233;50.804;7.126;2023-04-09T13:18:12;16.20;99.90
33955;DHT22;20233;50.804;7.126;2023-04-09T13:20:38;16.20;99.90
33955;DHT22;20233;50.804;7.126;2023-04-09T13:23:04;16.30;99.90
33955;DHT22;20233;50.804;7.126;2023-04-09T13:25:30;16.40;99.90
33955;DHT22;20233;50.804;7.126;2023-04-09T13:27:56;16.30;99.90
33955;DHT22;20233;50.804;7.126;2023-04-09T13:30:22;16.40;99.90
33955;DHT22;20233;50.804;7.126;2023-04-09T13:32:47;16.40;99.90
33955;DHT22;20233;50.804;7.126;2023-04-09T13:35:13;16.40;99.90
33955;DHT22;20233;50.804;7.126;2023-04-09T13:37:39;16.50;99.90
33955;DHT22;20233;50.804;7.126;2023-04-09T13:40:05;16.50;99.90
33955;DHT22;20233;50.804;7.126;2023-04-09T13:42:33;16.60;99.90
33955;DHT22;20233;50.804;7.126;2023-04-09T13:44:59;16.60;99.90
33955;DHT22;20233;50.804;7.126;2023-04-09T13:47:24;16.50;99.90
33955;DHT22;20233;50.804;7.126;2023-04-09T13:49:50;16.40;99.90
33955;DHT22;20233;50.804;7.126;2023-04-09T13:52:18;16.40;99.90
33955;DHT22;20233;50.804;7.126;2023-04-09T13:54:44;16.20;99.90
33955;DHT22;20233;50.804;7.126;2023-04-09T13:57:10;16.30;99.90
33955;DHT22;20233;50.804;7.126;2023-04-09T13:59:35;16.40;99.90
33955;DHT22;20233;50.804;7.126;2023-04-09T14:02:02;16.50;99.90
33955;DHT22;20233;50.804;7.126;2023-04-09T14:04:30;16.30;99.90
33955;DHT22;20233;50.804;7.126;2023-04-09T14:06:55;16.20;99.90
33955;DHT22;20233;50.804;7.126;2023-04-09T14:09:24;16.00;99.90
33955;DHT22;20233;50.804;7.126;2023-04-09T14:11:50;15.90;99.90
33955;DHT22;20233;50.804;7.126;2023-04-09T14:14:16;15.90;99.90
33955;DHT22;20233;50.804;7.126;2023-04-09T14:16:42;16.10;99.90
33955;DHT22;20233;50.804;7.126;2023-04-09T14:19:07;16.10;99.90
33955;DHT22;20233;50.804;7.126;2023-04-09T14:21:34;16.20;99.90
33955;DHT22;20233;50.804;7.126;2023-04-09T14:24:00;16.10;99.90
33955;DHT22;20233;50.804;7.126;2023-04-09T14:26:25;16.20;99.90
33955;DHT22;20233;50.804;7.126;2023-04-09T14:28:53;16.20;99.90
33955;DHT22;20233;50.804;7.126;2023-04-09T14:31:18;16.20;99.90
33955;DHT22;20233;50.804;7.126;2023-04-09T14:33:46;16.20;99.90
33955;DHT22;20233;50.804;7.126;2023-04-09T14:36:11;16.50;99.90
33955;DHT22;20233;50.804;7.126;2023-04-09T14:38:37;16.50;99.90
33955;DHT22;20233;50.804;7.126;2023-04-09T14:41:03;16.50;99.90
33955;DHT22;20233;50.804;7.126;2023-04-09T14:43:28;16.50;99.90
33955;DHT22;20233;50.804;7.126;2023-04-09T14:45:54;16.50;99.90
33955;DHT22;20233;50.804;7.126;2023-04-09T14:48:19;16.50;99.90
33955;DHT22;20233;50.804;7.126;2023-04-09T14:50:45;16.50;99.90
33955;DHT22;20233;50.804;7.126;2023-04-09T14:53:10;16.60;99.90
33955;DHT22;20233;50.804;7.126;2023-04-09T14:55:37;16.50;99.90
33955;DHT22;20233;50.804;7.126;2023-04-09T14:58:03;16.40;99.90
33955;DHT22;20233;50.804;7.126;2023-04-09T15:00:31;16.40;99.90
33955;DHT22;20233;50.804;7.126;2023-04-09T15:02:59;16.50;99.90
33955;DHT22;20233;50.804;7.126;2023-04-09T15:05:25;16.60;99.90
33955;DHT22;20233;50.804;7.126;2023-04-09T15:07:51;16.70;99.90
33955;DHT22;20233;50.804;7.126;2023-04-09T15:10:17;16.70;99.90
33955;DHT22;20233;50.804;7.126;2023-04-09T15:12:42;16.60;99.90
33955;DHT22;20233;50.804;7.126;2023-04-09T15:15:08;16.60;99.90
33955;DHT22;20233;50.804;7.126;2023-04-09T15:17:35;16.60;99.90
33955;DHT22;20233;50.804;7.126;2023-04-09T15:20:01;16.70;99.90
33955;DHT22;20233;50.804;7.126;2023-04-09T15:22:27;16.90;99.90
33955;DHT22;20233;50.804;7.126;2023-04-09T15:24:53;17.00;99.90
33955;DHT22;20233;50.804;7.126;2023-04-09T15:27:18;17.00;99.90
33955;DHT22;20233;50.804;7.126;2023-04-09T15:29:44;17.10;99.90
33955;DHT22;20233;50.804;7.126;2023-04-09T15:34:37;17.30;99.90
33955;DHT22;20233;50.804;7.126;2023-04-09T15:37:02;17.30;99.90
33955;DHT22;20233;50.804;7.126;2023-04-09T15:39:28;17.30;99.90
33955;DHT22;20233;50.804;7.126;2023-04-09T15:41:54;17.30;99.90
33955;DHT22;20233;50.804;7.126;2023-04-09T15:44:24;17.50;99.90
33955;DHT22;20233;50.804;7.126;2023-04-09T15:46:49;17.50;99.90
33955;DHT22;20233;50.804;7.126;2023-04-09T15:49:15;17.40;99.90
33955;DHT22;20233;50.804;7.126;2023-04-09T15:51:41;17.50;99.90